sensor_id;sensor_type;location;lat;lon;timestamp;temperature;humidity
17529;DHT22;8882;53.192;8.184;2022-11-23T05:31:25;6.90;99.90
17529;DHT22;8882;53.192;8.184;2022-11-23T05:33:50;6.90;99.90
17529;DHT22;8882;53.192;8.184;2022-11-23T05:36:16;7.00;99.90
17529;DHT22;8882;53.192;8.184;2022-11-23T05:38:41;7.00;99.90
17529;DHT22;8882;53.192;8.184;2022-11-23T05:41:07;7.00;99.90
17529;DHT22;8882;53.192;8.184;2022-11-23T05:43:33;7.00;99.90
17529;DHT22;8882;53.192;8.184;2022-11-23T05:45:59;7.00;99.90
17529;DHT22;8882;53.192;8.184;2022-11-23T05:48:25;7.00;99.90
17529;DHT22;8882;53.192;8.184;2022-11-23T05:53:17;7.00;99.90
17529;DHT22;8882;53.192;8.184;2022-11-23T05:55:42;7.00;99.90
17529;DHT22;8882;53.192;8.184;2022-11-23T05:58:08;7.00;99.90
17529;DHT22;8882;53.192;8.184;2022-11-23T06:00:34;7.00;99.90
17529;DHT22;8882;53.192;8.184;2022-11-23T06:03:00;7.00;99.90
17529;DHT22;8882;53.192;8.184;2022-11-23T06:05:26;7.00;99.90
17529;DHT22;8882;53.192;8.184;2022-11-23T06:07:52;7.10;99.90
17529;DHT22;8882;53.192;8.184;2022-11-23T06:10:18;7.10;99.90
17529;DHT22;8882;53.192;8.184;2022-11-23T06:15:10;7.10;99.90
17529;DHT22;8882;53.192;8.184;2022-11-23T06:17:36;7.20;99.90
17529;DHT22;8882;53.192;8.184;2022-11-23T06:20:02;7.10;99.90
17529;DHT22;8882;53.192;8.184;2022-11-23T06:22:28;7.10;99.90
17529;DHT22;8882;53.192;8.184;2022-11-23T06:24:54;7.10;99.90
17529;DHT22;8882;53.192;8.184;2022-11-23T06:27:19;7.10;99.90
17529;DHT22;8882;53.192;8.184;2022-11-23T06:29:45;7.10;99.90
17529;DHT22;8882;53.192;8.184;2022-11-23T06:32:11;7.10;99.90
17529;DHT22;8882;53.192;8.184;2022-11-23T06:34:37;7.00;99.90
17529;DHT22;8882;53.192;8.184;2022-11-23T06:37:02;7.10;99.90
17529;DHT22;8882;53.192;8.184;2022-11-23T06:39:28;7.00;99.90
17529;DHT22;8882;53.192;8.184;2022-11-23T06:41:53;7.10;99.90
17529;DHT22;8882;53.192;8.184;2022-11-23T06:44:19;7.10;99.90
17529;DHT22;8882;53.192;8.184;2022-11-23T06:46:44;7.00;99.90
17529;DHT22;8882;53.192;8.184;2022-11-23T06:49:10;7.00;99.90
17529;DHT22;8882;53.192;8.184;2022-11-23T06:51:35;7.00;99.90
17529;DHT22;8882;53.192;8.184;2022-11-23T06:54:01;7.00;99.90
17529;DHT22;8882;53.192;8.184;2022-11-23T06:56:26;7.00;99.90
17529;DHT22;8882;53.192;8.184;2022-11-23T06:58:52;7.00;99.90
17529;DHT22;8882;53.192;8.184;2022-11-23T07:01:17;7.00;99.90
17529;DHT22;8882;53.192;8.184;2022-11-23T07:03:43;7.00;99.90
17529;DHT22;8882;53.192;8.184;2022-11-23T07:06:09;7.00;99.90
17529;DHT22;8882;53.192;8.184;2022-11-23T07:08:35;7.00;99.90
17529;DHT22;8882;53.192;8.184;2022-11-23T07:11:04;7.10;99.90
17529;DHT22;8882;53.192;8.184;2022-11-23T07:13:31;7.10;99.90
17529;DHT22;8882;53.192;8.184;2022-11-23T07:15:57;7.10;99.90
17529;DHT22;8882;53.192;8.184;2022-11-23T07:18:23;7.10;99.90
17529;DHT22;8882;53.192;8.184;2022-11-23T07:20:49;7.00;99.90
17529;DHT22;8882;53.192;8.184;2022-11-23T07:23:15;7.00;99.90
17529;DHT22;8882;53.192;8.184;2022-11-23T07:25:40;7.00;99.90
17529;DHT22;8882;53.192;8.184;2022-11-23T07:28:07;7.10;99.90
17529;DHT22;8882;53.192;8.184;2022-11-23T07:30:33;7.10;99.90
17529;DHT22;8882;53.192;8.184;2022-11-23T07:33:01;7.10;99.90
17529;DHT22;8882;53.192;8.184;2022-11-23T07:35:28;7.00;99.90
17529;DHT22;8882;53.192;8.184;2022-11-23T07:37:53;7.10;99.90
17529;DHT22;8882;53.192;8.184;2022-11-23T07:40:19;7.10;99.90
17529;DHT22;8882;53.192;8.184;2022-11-23T07:42:44;7.10;99.90
17529;DHT22;8882;53.192;8.184;2022-11-23T07:45:11;7.10;99.90
17529;DHT22;8882;53.192;8.184;2022-11-23T07:47:37;7.20;99.90
17529;DHT22;8882;53.192;8.184;2022-11-23T07:50:04;7.10;99.90
17529;DHT22;8882;53.192;8.184;2022-11-23T07:52:30;7.10;99.90
17529;DHT22;8882;53.192;8.184;2022-11-23T07:54:56;7.10;99.90
17529;DHT22;8882;53.192;8.184;2022-11-23T07:57:22;7.10;99.90
17529;DHT22;8882;53.192;8.184;2022-11-23T07:59:47;7.10;99.90
17529;DHT22;8882;53.192;8.184;2022-11-23T08:02:14;7.10;99.90
17529;DHT22;8882;53.192;8.184;2022-11-23T08:04:40;7.20;99.90
17529;DHT22;8882;53.192;8.184;2022-11-23T08:07:05;7.20;99.90
17529;DHT22;8882;53.192;8.184;2022-11-23T08:09:31;7.10;99.90
17529;DHT22;8882;53.192;8.184;2022-11-23T08:11:56;7.20;99.90
17529;DHT22;8882;53.192;8.184;2022-11-23T08:14:22;7.20;99.90
17529;DHT22;8882;53.192;8.184;2022-11-23T08:16:49;7.20;99.90
17529;DHT22;8882;53.192;8.184;2022-11-23T08:19:15;7.20;99.90
17529;DHT22;8882;53.192;8.184;2022-11-23T08:21:41;7.20;99.90
17529;DHT22;8882;53.192;8.184;2022-11-23T08:24:06;7.30;99.90
17529;DHT22;8882;53.192;8.184;2022-11-23T08:26:32;7.20;99.90
17529;DHT22;8882;53.192;8.184;2022-11-23T08:28:57;7.30;99.90
17529;DHT22;8882;53.192;8.184;2022-11-23T08:31:23;7.30;99.90
17529;DHT22;8882;53.192;8.184;2022-11-23T08:33:48;7.30;99.90
17529;DHT22;8882;53.192;8.184;2022-11-23T08:36:14;7.30;99.90
17529;DHT22;8882;53.192;8.184;2022-11-23T08:38:40;7.30;99.90
17529;DHT22;8882;53.192;8.184;2022-11-23T08:41:05;7.30;99.90
17529;DHT22;8882;53.192;8.184;2022-11-23T08:43:31;7.30;99.90
17529;DHT22;8882;53.192;8.184;2022-11-23T08:45:57;7.30;99.90
17529;DHT22;8882;53.192;8.184;2022-11-23T08:48:24;7.30;99.90
17529;DHT22;8882;53.192;8.184;2022-11-23T08:50:50;7.30;99.90
17529;DHT22;8882;53.192;8.184;2022-11-23T08:53:16;7.30;99.90
17529;DHT22;8882;53.192;8.184;2022-11-23T08:55:42;7.30;99.90
17529;DHT22;8882;53.192;8.184;2022-11-23T08:58:07;7.30;99.90
17529;DHT22;8882;53.192;8.184;2022-11-23T09:00:34;7.30;99.90
17529;DHT22;8882;53.192;8.184;2022-11-23T09:03:00;7.30;99.90
17529;DHT22;8882;53.192;8.184;2022-11-23T09:05:26;7.30;99.90
17529;DHT22;8882;53.192;8.184;2022-11-23T09:07:52;7.30;99.90
17529;DHT22;8882;53.192;8.184;2022-11-23T09:10:18;7.40;99.90
17529;DHT22;8882;53.192;8.184;2022-11-23T09:12:44;7.40;99.90
17529;DHT22;8882;53.192;8.184;2022-11-23T09:15:09;7.40;99.90
17529;DHT22;8882;53.192;8.184;2022-11-23T09:17:35;7.40;99.90
17529;DHT22;8882;53.192;8.184;2022-11-23T09:20:00;7.40;99.90
17529;DHT22;8882;53.192;8.184;2022-11-23T09:22:26;7.50;99.90
17529;DHT22;8882;53.192;8.184;2022-11-23T09:24:52;7.50;99.90
17529;DHT22;8882;53.192;8.184;2022-11-23T09:27:18;7.50;99.90
17529;DHT22;8882;53.192;8.184;2022-11-23T09:29:44;7.50;99.90
17529;DHT22;8882;53.192;8.184;2022-11-23T09:32:09;7.60;99.90
17529;DHT22;8882;53.192;8.184;2022-11-23T09:34:35;7.70;99.90
17529;DHT22;8882;53.192;8.184;2022-11-23T09:37:01;7.70;99.90
17529;DHT22;8882;53.192;8.184;2022-11-23T09:39:26;7.70;99.90
17529;DHT22;8882;53.192;8.184;2022-11-23T09:42:20;7.80;99.90
17529;DHT22;8882;53.192;8.184;2022-11-23T09:50:48;7.90;99.90
17529;DHT22;8882;53.192;8.184;2022-11-23T09:53:21;8.00;99.90
17529;DHT22;8882;53.192;8.184;2022-11-23T09:55:51;8.00;99.90
17529;DHT22;8882;53.192;8.184;2022-11-23T09:58:22;8.00;99.90
17529;DHT22;8882;53.192;8.184;2022-11-23T10:00:59;8.00;99.90
17529;DHT22;8882;53.192;8.184;2022-11-23T10:03:26;8.00;99.90
17529;DHT22;8882;53.192;8.184;2022-11-23T10:17:45;8.20;99.90
17529;DHT22;8882;53.192;8.184;2022-11-23T10:25:24;8.30;99.90
17529;DHT22;8882;53.192;8.184;2022-11-23T10:27:55;8.30;99.90
17529;DHT22;8882;53.192;8.184;2022-11-23T10:30:22;8.30;99.90
17529;DHT22;8882;53.192;8.184;2022-11-23T10:33:03;8.40;99.90
17529;DHT22;8882;53.192;8.184;2022-11-23T10:35:33;8.40;99.90
17529;DHT22;8882;53.192;8.184;2022-11-23T10:38:12;8.40;99.90
17529;DHT22;8882;53.192;8.184;2022-11-23T10:41:01;8.40;99.90
17529;DHT22;8882;53.192;8.184;2022-11-23T10:43:51;8.40;99.90
17529;DHT22;8882;53.192;8.184;2022-11-23T10:46:30;8.40;99.90
17529;DHT22;8882;53.192;8.184;2022-11-23T10:49:26;8.40;99.90
17529;DHT22;8882;53.192;8.184;2022-11-23T10:52:03;8.50;99.90
17529;DHT22;8882;53.192;8.184;2022-11-23T10:54:48;8.50;99.90
17529;DHT22;8882;53.192;8.184;2022-11-23T10:57:30;8.50;99.90
17529;DHT22;8882;53.192;8.184;2022-11-23T11:02:40;8.60;99.90
17529;DHT22;8882;53.192;8.184;2022-11-23T11:05:26;8.60;99.90
17529;DHT22;8882;53.192;8.184;2022-11-23T11:07:53;8.70;99.90
17529;DHT22;8882;53.192;8.184;2022-11-23T11:10:40;8.70;99.90
17529;DHT22;8882;53.192;8.184;2022-11-23T11:13:27;8.70;99.90
17529;DHT22;8882;53.192;8.184;2022-11-23T11:18:29;8.70;99.90
17529;DHT22;8882;53.192;8.184;2022-11-23T11:20:58;8.70;99.90
17529;DHT22;8882;53.192;8.184;2022-11-23T11:23:25;8.70;99.90
17529;DHT22;8882;53.192;8.184;2022-11-23T11:26:05;8.70;99.90
17529;DHT22;8882;53.192;8.184;2022-11-23T11:28:39;8.70;99.90
17529;DHT22;8882;53.192;8.184;2022-11-23T11:36:43;8.70;99.90
17529;DHT22;8882;53.192;8.184;2022-11-23T11:39:21;8.80;99.90
17529;DHT22;8882;53.192;8.184;2022-11-23T11:41:49;8.80;99.90
17529;DHT22;8882;53.192;8.184;2022-11-23T11:44:21;8.80;99.90
17529;DHT22;8882;53.192;8.184;2022-11-23T11:46:53;8.80;99.90
17529;DHT22;8882;53.192;8.184;2022-11-23T11:49:29;8.90;99.90
17529;DHT22;8882;53.192;8.184;2022-11-23T11:57:18;8.90;99.90
17529;DHT22;8882;53.192;8.184;2022-11-23T11:59:49;8.90;99.90
17529;DHT22;8882;53.192;8.184;2022-11-23T12:08:13;8.90;99.90
17529;DHT22;8882;53.192;8.184;2022-11-23T12:10:42;8.90;99.90
17529;DHT22;8882;53.192;8.184;2022-11-23T12:13:19;8.90;99.90
17529;DHT22;8882;53.192;8.184;2022-11-23T12:15:49;9.00;99.90
17529;DHT22;8882;53.192;8.184;2022-11-23T12:18:40;9.00;99.90
17529;DHT22;8882;53.192;8.184;2022-11-23T12:21:28;9.00;99.90
17529;DHT22;8882;53.192;8.184;2022-11-23T12:24:34;9.00;99.90
17529;DHT22;8882;53.192;8.184;2022-11-23T12:27:06;9.00;99.90
17529;DHT22;8882;53.192;8.184;2022-11-23T12:29:49;9.10;99.90
17529;DHT22;8882;53.192;8.184;2022-11-23T12:35:47;9.10;99.90
17529;DHT22;8882;53.192;8.184;2022-11-23T12:41:02;9.20;99.90
17529;DHT22;8882;53.192;8.184;2022-11-23T12:43:51;9.20;99.90
17529;DHT22;8882;53.192;8.184;2022-11-23T12:46:26;9.30;99.90
17529;DHT22;8882;53.192;8.184;2022-11-23T12:49:17;9.30;99.90
17529;DHT22;8882;53.192;8.184;2022-11-23T12:52:01;9.30;99.90
17529;DHT22;8882;53.192;8.184;2022-11-23T12:54:56;9.40;99.90
17529;DHT22;8882;53.192;8.184;2022-11-23T12:57:41;9.50;99.90
17529;DHT22;8882;53.192;8.184;2022-11-23T13:00:19;9.50;99.90
17529;DHT22;8882;53.192;8.184;2022-11-23T13:05:34;9.70;99.90
17529;DHT22;8882;53.192;8.184;2022-11-23T13:11:26;9.70;99.90
17529;DHT22;8882;53.192;8.184;2022-11-23T13:14:23;9.80;99.90
17529;DHT22;8882;53.192;8.184;2022-11-23T13:16:59;9.80;99.90
17529;DHT22;8882;53.192;8.184;2022-11-23T13:22:05;9.80;99.90
17529;DHT22;8882;53.192;8.184;2022-11-23T13:24:36;9.80;99.90
17529;DHT22;8882;53.192;8.184;2022-11-23T13:32:33;9.80;99.90
17529;DHT22;8882;53.192;8.184;2022-11-23T13:34:59;9.80;99.90
17529;DHT22;8882;53.192;8.184;2022-11-23T13:37:25;9.80;99.90
17529;DHT22;8882;53.192;8.184;2022-11-23T13:42:21;9.90;99.90
17529;DHT22;8882;53.192;8.184;2022-11-23T13:44:46;9.80;99.90
17529;DHT22;8882;53.192;8.184;2022-11-23T13:49:47;9.80;99.90
17529;DHT22;8882;53.192;8.184;2022-11-23T13:52:24;9.80;99.90
17529;DHT22;8882;53.192;8.184;2022-11-23T13:55:17;9.80;99.90
17529;DHT22;8882;53.192;8.184;2022-11-23T13:58:32;9.80;99.90
17529;DHT22;8882;53.192;8.184;2022-11-23T14:00:52;9.80;99.90
17529;DHT22;8882;53.192;8.184;2022-11-23T14:03:44;9.80;99.90
17529;DHT22;8882;53.192;8.184;2022-11-23T14:12:07;9.70;99.90
17529;DHT22;8882;53.192;8.184;2022-11-23T14:17:36;9.70;99.90
17529;DHT22;8882;53.192;8.184;2022-11-23T14:31:43;9.60;99.90
17529;DHT22;8882;53.192;8.184;2022-11-23T14:37:16;9.50;99.90
17529;DHT22;8882;53.192;8.184;2022-11-23T14:40:36;9.40;99.90
17529;DHT22;8882;53.192;8.184;2022-11-23T14:42:56;9.40;99.90
17529;DHT22;8882;53.192;8.184;2022-11-23T14:45:26;9.30;99.90
17529;DHT22;8882;53.192;8.184;2022-11-23T14:47:52;9.30;99.90
17529;DHT22;8882;53.192;8.184;2022-11-23T14:50:27;9.20;99.90
17529;DHT22;8882;53.192;8.184;2022-11-23T14:52:54;9.20;99.90
17529;DHT22;8882;53.192;8.184;2022-11-23T14:55:27;9.20;99.90
17529;DHT22;8882;53.192;8.184;2022-11-23T14:58:00;9.20;99.90
17529;DHT22;8882;53.192;8.184;2022-11-23T15:03:08;9.10;99.90
17529;DHT22;8882;53.192;8.184;2022-11-23T15:05:34;9.10;99.90
17529;DHT22;8882;53.192;8.184;2022-11-23T15:08:10;9.10;99.90
17529;DHT22;8882;53.192;8.184;2022-11-23T15:10:47;9.10;99.90
17529;DHT22;8882;53.192;8.184;2022-11-23T15:13:23;9.00;99.90
17529;DHT22;8882;53.192;8.184;2022-11-23T15:15:51;9.00;99.90
17529;DHT22;8882;53.192;8.184;2022-11-23T15:18:26;9.00;99.90
17529;DHT22;8882;53.192;8.184;2022-11-23T15:20:53;8.90;99.90
17529;DHT22;8882;53.192;8.184;2022-11-23T15:23:23;8.90;99.90
17529;DHT22;8882;53.192;8.184;2022-11-23T15:25:53;8.80;99.90
17529;DHT22;8882;53.192;8.184;2022-11-23T15:28:27;8.80;99.90
17529;DHT22;8882;53.192;8.184;2022-11-23T15:30:53;8.80;99.90
17529;DHT22;8882;53.192;8.184;2022-11-23T15:33:21;8.70;99.90
17529;DHT22;8882;53.192;8.184;2022-11-23T15:35:47;8.90;99.90
17529;DHT22;8882;53.192;8.184;2022-11-23T15:38:15;8.80;99.90
17529;DHT22;8882;53.192;8.184;2022-11-23T15:40:43;8.70;99.90
17529;DHT22;8882;53.192;8.184;2022-11-23T15:43:16;8.60;99.90
17529;DHT22;8882;53.192;8.184;2022-11-23T15:50:52;8.40;99.90
17529;DHT22;8882;53.192;8.184;2022-11-23T15:53:52;8.30;99.90
17529;DHT22;8882;53.192;8.184;2022-11-23T15:58:51;8.20;99.90
17529;DHT22;8882;53.192;8.184;2022-11-23T16:01:17;8.10;99.90
17529;DHT22;8882;53.192;8.184;2022-11-23T16:03:54;8.10;99.90
17529;DHT22;8882;53.192;8.184;2022-11-23T16:06:38;8.00;99.90
17529;DHT22;8882;53.192;8.184;2022-11-23T16:09:34;8.00;99.90
17529;DHT22;8882;53.192;8.184;2022-11-23T16:12:00;8.00;99.90
17529;DHT22;8882;53.192;8.184;2022-11-23T16:14:30;7.90;99.90
17529;DHT22;8882;53.192;8.184;2022-11-23T16:17:05;7.90;99.90
17529;DHT22;8882;53.192;8.184;2022-11-23T16:19:38;7.80;99.90
17529;DHT22;8882;53.192;8.184;2022-11-23T16:22:06;7.80;99.90
17529;DHT22;8882;53.192;8.184;2022-11-23T16:24:33;7.80;99.90
17529;DHT22;8882;53.192;8.184;2022-11-23T16:26:59;7.70;99.90
17529;DHT22;8882;53.192;8.184;2022-11-23T16:29:29;7.70;99.90
17529;DHT22;8882;53.192;8.184;2022-11-23T16:32:00;7.60;99.90
17529;DHT22;8882;53.192;8.184;2022-11-23T16:34:27;7.60;99.90
17529;DHT22;8882;53.192;8.184;2022-11-23T16:36:54;7.50;99.90
17529;DHT22;8882;53.192;8.184;2022-11-23T16:39:23;7.60;99.90
17529;DHT22;8882;53.192;8.184;2022-11-23T16:41:50;7.50;99.90
17529;DHT22;8882;53.192;8.184;2022-11-23T16:44:16;7.50;99.90
17529;DHT22;8882;53.192;8.184;2022-11-23T16:46:42;7.40;99.90
17529;DHT22;8882;53.192;8.184;2022-11-23T16:49:14;7.40;99.90
17529;DHT22;8882;53.192;8.184;2022-11-23T16:51:41;7.40;99.90
17529;DHT22;8882;53.192;8.184;2022-11-23T16:54:07;7.40;99.90
17529;DHT22;8882;53.192;8.184;2022-11-23T16:56:33;7.30;99.90
17529;DHT22;8882;53.192;8.184;2022-11-23T16:58:59;7.30;99.90
17529;DHT22;8882;53.192;8.184;2022-11-23T17:01:26;7.30;99.90
17529;DHT22;8882;53.192;8.184;2022-11-23T17:03:53;7.20;99.90
17529;DHT22;8882;53.192;8.184;2022-11-23T17:06:20;7.20;99.90
17529;DHT22;8882;53.192;8.184;2022-11-23T17:08:48;7.20;99.90
17529;DHT22;8882;53.192;8.184;2022-11-23T17:11:22;7.20;99.90
17529;DHT22;8882;53.192;8.184;2022-11-23T17:13:50;7.20;99.90
17529;DHT22;8882;53.192;8.184;2022-11-23T17:16:19;7.10;99.90
17529;DHT22;8882;53.192;8.184;2022-11-23T17:18:45;7.10;99.90
17529;DHT22;8882;53.192;8.184;2022-11-23T17:21:11;7.10;99.90
17529;DHT22;8882;53.192;8.184;2022-11-23T17:23:37;7.00;99.90
17529;DHT22;8882;53.192;8.184;2022-11-23T17:26:06;7.00;99.90
17529;DHT22;8882;53.192;8.184;2022-11-23T17:28:32;6.90;99.90
17529;DHT22;8882;53.192;8.184;2022-11-23T17:30:59;6.90;99.90
17529;DHT22;8882;53.192;8.184;2022-11-23T17:33:25;6.90;99.90
17529;DHT22;8882;53.192;8.184;2022-11-23T17:35:51;6.90;99.90
17529;DHT22;8882;53.192;8.184;2022-11-23T17:38:20;6.90;99.90
17529;DHT22;8882;53.192;8.184;2022-11-23T17:40:47;6.90;99.90
17529;DHT22;8882;53.192;8.184;2022-11-23T17:43:13;6.80;99.90
17529;DHT22;8882;53.192;8.184;2022-11-23T17:45:39;6.80;99.90
17529;DHT22;8882;53.192;8.184;2022-11-23T17:48:07;6.70;99.90
17529;DHT22;8882;53.192;8.184;2022-11-23T17:50:33;6.70;99.90
17529;DHT22;8882;53.192;8.184;2022-11-23T17:52:59;6.80;99.90
17529;DHT22;8882;53.192;8.184;2022-11-23T17:55:24;6.80;99.90
17529;DHT22;8882;53.192;8.184;2022-11-23T17:57:50;6.70;99.90
17529;DHT22;8882;53.192;8.184;2022-11-23T18:00:20;6.70;99.90
17529;DHT22;8882;53.192;8.184;2022-11-23T18:02:46;6.80;99.90
17529;DHT22;8882;53.192;8.184;2022-11-23T18:05:13;6.80;99.90
17529;DHT22;8882;53.192;8.184;2022-11-23T18:07:38;6.90;99.90
17529;DHT22;8882;53.192;8.184;2022-11-23T18:10:06;7.00;99.90
17529;DHT22;8882;53.192;8.184;2022-11-23T18:12:32;7.00;99.90
17529;DHT22;8882;53.192;8.184;2022-11-23T18:14:58;7.10;99.90
17529;DHT22;8882;53.192;8.184;2022-11-23T18:17:23;7.00;99.90
17529;DHT22;8882;53.192;8.184;2022-11-23T18:19:49;7.00;99.90
17529;DHT22;8882;53.192;8.184;2022-11-23T18:22:15;7.00;99.90
17529;DHT22;8882;53.192;8.184;2022-11-23T18:24:40;6.90;99.90
17529;DHT22;8882;53.192;8.184;2022-11-23T18:27:59;7.00;99.90
17529;DHT22;8882;53.192;8.184;2022-11-23T18:30:24;7.30;99.90
17529;DHT22;8882;53.192;8.184;2022-11-23T18:32:50;7.70;99.90
17529;DHT22;8882;53.192;8.184;2022-11-23T18:35:15;7.70;99.90
17529;DHT22;8882;53.192;8.184;2022-11-23T18:37:41;7.90;99.90
17529;DHT22;8882;53.192;8.184;2022-11-23T18:40:07;7.80;99.90
17529;DHT22;8882;53.192;8.184;2022-11-23T18:42:32;7.80;99.90
17529;DHT22;8882;53.192;8.184;2022-11-23T18:44:58;7.90;99.90
17529;DHT22;8882;53.192;8.184;2022-11-23T18:47:23;7.80;99.90
17529;DHT22;8882;53.192;8.184;2022-11-23T18:49:49;7.80;99.90
17529;DHT22;8882;53.192;8.184;2022-11-23T18:52:14;7.60;99.90
17529;DHT22;8882;53.192;8.184;2022-11-23T18:54:41;7.50;99.90
17529;DHT22;8882;53.192;8.184;2022-11-23T18:57:06;7.50;99.90
17529;DHT22;8882;53.192;8.184;2022-11-23T18:59:32;7.50;99.90
17529;DHT22;8882;53.192;8.184;2022-11-23T19:01:57;7.50;99.90
17529;DHT22;8882;53.192;8.184;2022-11-23T19:04:23;7.50;99.90
17529;DHT22;8882;53.192;8.184;2022-11-23T19:06:48;7.40;99.90
17529;DHT22;8882;53.192;8.184;2022-11-23T19:09:14;7.40;99.90
17529;DHT22;8882;53.192;8.184;2022-11-23T19:11:39;7.40;99.90
17529;DHT22;8882;53.192;8.184;2022-11-23T19:14:05;7.40;99.90
17529;DHT22;8882;53.192;8.184;2022-11-23T19:16:31;7.40;99.90
17529;DHT22;8882;53.192;8.184;2022-11-23T19:18:59;7.30;99.90
17529;DHT22;8882;53.192;8.184;2022-11-23T19:21:27;7.30;99.90
17529;DHT22;8882;53.192;8.184;2022-11-23T19:23:54;7.30;99.90
17529;DHT22;8882;53.192;8.184;2022-11-23T19:26:21;7.30;99.90
17529;DHT22;8882;53.192;8.184;2022-11-23T19:28:47;7.20;99.90
17529;DHT22;8882;53.192;8.184;2022-11-23T19:31:18;7.30;99.90
17529;DHT22;8882;53.192;8.184;2022-11-23T19:33:45;7.30;99.90
17529;DHT22;8882;53.192;8.184;2022-11-23T19:36:20;7.20;99.90
17529;DHT22;8882;53.192;8.184;2022-11-23T19:38:46;7.20;99.90
17529;DHT22;8882;53.192;8.184;2022-11-23T19:41:13;7.20;99.90
17529;DHT22;8882;53.192;8.184;2022-11-23T19:43:38;7.20;99.90
17529;DHT22;8882;53.192;8.184;2022-11-23T19:46:09;7.20;99.90
17529;DHT22;8882;53.192;8.184;2022-11-23T19:48:35;7.20;99.90
17529;DHT22;8882;53.192;8.184;2022-11-23T19:53:32;7.20;99.90
17529;DHT22;8882;53.192;8.184;2022-11-23T19:56:12;7.20;99.90
17529;DHT22;8882;53.192;8.184;2022-11-23T20:01:51;7.20;99.90
17529;DHT22;8882;53.192;8.184;2022-11-23T20:04:16;7.20;99.90
17529;DHT22;8882;53.192;8.184;2022-11-23T20:06:42;7.20;99.90
17529;DHT22;8882;53.192;8.184;2022-11-23T20:09:09;7.20;99.90
17529;DHT22;8882;53.192;8.184;2022-11-23T20:11:37;7.10;99.90
17529;DHT22;8882;53.192;8.184;2022-11-23T20:14:03;7.10;99.90
17529;DHT22;8882;53.192;8.184;2022-11-23T20:16:30;7.00;99.90
17529;DHT22;8882;53.192;8.184;2022-11-23T20:19:01;7.00;99.90
17529;DHT22;8882;53.192;8.184;2022-11-23T20:21:28;6.90;99.90
17529;DHT22;8882;53.192;8.184;2022-11-23T20:24:02;6.90;99.90
17529;DHT22;8882;53.192;8.184;2022-11-23T20:26:28;6.90;99.90
17529;DHT22;8882;53.192;8.184;2022-11-23T20:28:56;6.90;99.90
17529;DHT22;8882;53.192;8.184;2022-11-23T20:31:24;6.80;99.90
17529;DHT22;8882;53.192;8.184;2022-11-23T20:33:51;6.70;99.90
17529;DHT22;8882;53.192;8.184;2022-11-23T20:36:20;6.70;99.90
17529;DHT22;8882;53.192;8.184;2022-11-23T20:38:46;6.70;99.90
17529;DHT22;8882;53.192;8.184;2022-11-23T20:41:16;6.70;99.90
17529;DHT22;8882;53.192;8.184;2022-11-23T20:43:43;6.70;99.90
17529;DHT22;8882;53.192;8.184;2022-11-23T20:46:09;6.70;99.90
17529;DHT22;8882;53.192;8.184;2022-11-23T20:48:34;6.70;99.90
17529;DHT22;8882;53.192;8.184;2022-11-23T20:51:03;6.60;99.90
17529;DHT22;8882;53.192;8.184;2022-11-23T20:53:32;6.60;99.90
17529;DHT22;8882;53.192;8.184;2022-11-23T20:56:06;6.60;99.90
17529;DHT22;8882;53.192;8.184;2022-11-23T20:58:33;6.60;99.90
17529;DHT22;8882;53.192;8.184;2022-11-23T21:01:03;6.60;99.90
17529;DHT22;8882;53.192;8.184;2022-11-23T21:03:30;6.60;99.90
17529;DHT22;8882;53.192;8.184;2022-11-23T21:05:55;6.60;99.90
17529;DHT22;8882;53.192;8.184;2022-11-23T21:08:22;6.60;99.90
17529;DHT22;8882;53.192;8.184;2022-11-23T21:10:51;6.60;99.90
17529;DHT22;8882;53.192;8.184;2022-11-23T21:13:35;6.60;99.90
17529;DHT22;8882;53.192;8.184;2022-11-23T21:16:20;6.60;99.90
17529;DHT22;8882;53.192;8.184;2022-11-23T21:18:45;6.60;99.90
17529;DHT22;8882;53.192;8.184;2022-11-23T21:21:11;6.60;99.90
17529;DHT22;8882;53.192;8.184;2022-11-23T21:23:37;6.60;99.90
17529;DHT22;8882;53.192;8.184;2022-11-23T21:26:05;6.70;99.90
17529;DHT22;8882;53.192;8.184;2022-11-23T21:28:32;6.60;99.90
17529;DHT22;8882;53.192;8.184;2022-11-23T21:31:07;6.60;99.90
17529;DHT22;8882;53.192;8.184;2022-11-23T21:33:36;6.60;99.90
17529;DHT22;8882;53.192;8.184;2022-11-23T21:36:05;6.60;99.90
17529;DHT22;8882;53.192;8.184;2022-11-23T21:38:32;6.60;99.90
17529;DHT22;8882;53.192;8.184;2022-11-23T21:41:13;6.60;99.90
17529;DHT22;8882;53.192;8.184;2022-11-23T21:43:40;6.60;99.90
17529;DHT22;8882;53.192;8.184;2022-11-23T21:46:11;6.60;99.90
17529;DHT22;8882;53.192;8.184;2022-11-23T21:48:38;6.60;99.90
17529;DHT22;8882;53.192;8.184;2022-11-23T21:51:09;6.70;99.90
17529;DHT22;8882;53.192;8.184;2022-11-23T21:53:36;6.70;99.90
17529;DHT22;8882;53.192;8.184;2022-11-23T21:56:05;6.70;99.90
17529;DHT22;8882;53.192;8.184;2022-11-23T21:58:31;6.70;99.90
